Time;durP1;ratioP1;P1;durP2;ratioP2;P2;SDS_P1;SDS_P2;PMS_P1;PMS_P2;Temp;Humidity;BMP_temperature;BMP_pressure;BME280_temperature;BME280_humidity;BME280_pressure;Samples;Min_cycle;Max_cycle;Signal;HPM_P1;HPM_P2
2022/01/23 00:00:26;;;;;;;1.48;1.33;;;22.20;35.20;;;;;;5029097;28;20030;-50
2022/01/23 00:02:55;;;;;;;3.10;1.40;;;22.10;35.20;;;;;;5015064;28;20014;-48
2022/01/23 00:05:23;;;;;;;2.20;1.60;;;22.20;35.20;;;;;;5015180;28;20018;-48
2022/01/23 00:07:51;;;;;;;2.20;1.73;;;22.20;35.20;;;;;;5014736;28;20464;-51
2022/01/23 00:10:17;;;;;;;1.60;1.50;;;22.20;35.20;;;;;;5016928;28;20030;-54
2022/01/23 00:12:48;;;;;;;1.80;1.65;;;22.20;35.20;;;;;;5013654;28;20079;-52
2022/01/23 00:17:58;;;;;;;1.83;1.63;;;22.20;35.30;;;;;;5015695;28;20064;-49
2022/01/23 00:20:24;;;;;;;2.38;1.73;;;22.20;35.40;;;;;;5013620;28;20022;-50
2022/01/23 00:23:00;;;;;;;2.28;1.77;;;22.10;35.30;;;;;;4996238;28;20330;-55
2022/01/23 00:30:59;;;;;;;2.10;1.90;;;22.10;35.30;;;;;;5010848;28;20432;-52
2022/01/23 00:33:25;;;;;;;1.95;1.60;;;22.10;35.30;;;;;;5015380;28;20030;-55
2022/01/23 00:35:51;;;;;;;2.22;1.80;;;22.10;35.30;;;;;;5006136;28;20049;-51
2022/01/23 00:38:18;;;;;;;2.30;1.90;;;22.20;35.20;;;;;;4994694;28;20038;-51
2022/01/23 00:40:45;;;;;;;3.17;1.55;;;22.20;35.20;;;;;;5008399;28;20101;-52
2022/01/23 00:43:25;;;;;;;1.88;1.67;;;22.10;35.40;;;;;;4994801;28;20038;-53
2022/01/23 00:45:56;;;;;;;2.42;1.88;;;22.10;35.20;;;;;;5015699;28;20057;-56
2022/01/23 00:48:27;;;;;;;2.38;1.60;;;22.10;35.20;;;;;;5014413;28;20030;-52
2022/01/23 00:50:53;;;;;;;2.58;1.67;;;22.10;35.20;;;;;;5011311;28;20036;-55
2022/01/23 00:53:19;;;;;;;2.78;2.00;;;22.10;35.20;;;;;;5034003;28;20029;-54
2022/01/23 00:55:47;;;;;;;2.00;1.60;;;22.10;35.10;;;;;;5016195;28;20041;-53
2022/01/23 00:58:14;;;;;;;2.85;1.85;;;22.10;35.10;;;;;;5027159;28;20076;-52
2022/01/23 01:00:41;;;;;;;1.95;1.65;;;22.10;35.10;;;;;;5030438;28;20147;-48
2022/01/23 01:03:08;;;;;;;1.85;1.70;;;22.10;35.10;;;;;;5035864;28;20064;-52
2022/01/23 01:05:34;;;;;;;2.83;1.92;;;22.10;35.00;;;;;;5070891;28;20032;-54
2022/01/23 01:08:04;;;;;;;2.58;1.70;;;22.10;35.10;;;;;;5055680;28;20029;-54
2022/01/23 01:10:49;;;;;;;2.65;1.80;;;22.10;35.10;;;;;;5019021;28;20049;-51
2022/01/23 01:13:15;;;;;;;2.90;2.10;;;22.10;35.10;;;;;;5038069;28;20093;-49
2022/01/23 01:15:58;;;;;;;2.47;1.92;;;22.10;35.10;;;;;;5037118;28;20036;-52
2022/01/23 01:32:10;;;;;;;1.95;1.50;;;22.00;35.10;;;;;;5043239;28;20024;-50
2022/01/23 01:34:41;;;;;;;2.22;1.50;;;22.00;35.00;;;;;;5046830;28;20024;-51
2022/01/23 01:37:09;;;;;;;2.42;1.60;;;22.00;35.00;;;;;;5061584;28;20439;-53
2022/01/23 01:39:35;;;;;;;3.22;1.90;;;22.00;35.10;;;;;;5046700;28;20048;-48
2022/01/23 01:42:01;;;;;;;1.90;1.60;;;22.00;35.00;;;;;;5029594;28;20052;-53
2022/01/23 01:44:31;;;;;;;2.28;1.90;;;22.00;35.00;;;;;;5054163;28;20024;-57
2022/01/23 01:47:22;;;;;;;2.30;1.70;;;22.00;35.00;;;;;;5048339;28;20021;-55
2022/01/23 01:49:55;;;;;;;2.22;1.55;;;22.00;35.00;;;;;;5023840;28;20038;-50
2022/01/23 01:52:21;;;;;;;2.20;1.80;;;22.00;35.00;;;;;;5044691;28;20082;-53
2022/01/23 01:54:54;;;;;;;2.05;1.80;;;22.00;35.00;;;;;;5028044;28;20025;-54
2022/01/23 01:57:20;;;;;;;3.00;1.77;;;22.00;35.00;;;;;;5048073;28;20025;-51
2022/01/23 02:00:37;;;;;;;2.72;1.80;;;22.00;35.10;;;;;;5037696;28;21765;-52
2022/01/23 02:08:29;;;;;;;2.00;1.70;;;22.00;35.10;;;;;;5046669;28;20029;-49
2022/01/23 02:11:10;;;;;;;2.20;1.80;;;21.90;35.00;;;;;;5037422;28;20024;-53
2022/01/23 02:13:44;;;;;;;2.95;1.67;;;21.90;35.00;;;;;;5050306;28;20455;-54
2022/01/23 02:25:30;;;;;;;1.95;1.45;;;21.90;35.00;;;;;;5059393;28;20115;-50
2022/01/23 02:54:56;;;;;;;2.10;1.50;;;21.80;35.20;;;;;;5037400;28;20348;-50
2022/01/23 02:57:38;;;;;;;2.30;1.67;;;21.80;35.10;;;;;;5032590;28;20080;-56
2022/01/23 03:00:13;;;;;;;1.80;1.65;;;21.80;35.10;;;;;;5030458;28;20037;-50
2022/01/23 03:03:05;;;;;;;1.75;1.55;;;21.80;35.10;;;;;;5035547;28;20099;-49
2022/01/23 03:06:58;;;;;;;2.20;1.65;;;21.80;35.10;;;;;;5039197;28;20040;-51
2022/01/23 03:14:13;;;;;;;1.75;1.58;;;21.80;35.10;;;;;;5026782;28;20078;-52
2022/01/23 03:30:28;;;;;;;2.75;1.55;;;21.70;35.10;;;;;;5050528;28;20464;-49
2022/01/23 03:34:50;;;;;;;2.17;1.58;;;21.70;35.00;;;;;;5039598;28;20100;-51
2022/01/23 03:37:17;;;;;;;3.90;1.67;;;21.70;35.00;;;;;;5055112;28;20045;-51
2022/01/23 03:39:42;;;;;;;2.03;1.83;;;21.70;35.00;;;;;;5041615;28;20021;-52
2022/01/23 03:42:09;;;;;;;1.75;1.65;;;21.70;35.00;;;;;;5039373;28;20101;-50
2022/01/23 03:44:40;;;;;;;2.13;1.60;;;21.80;35.10;;;;;;5020277;28;20025;-52
2022/01/23 03:49:39;;;;;;;2.00;1.80;;;21.70;35.00;;;;;;5036853;28;20355;-48
2022/01/23 03:52:27;;;;;;;2.30;1.60;;;21.70;35.10;;;;;;5038348;28;20307;-52
2022/01/23 03:54:54;;;;;;;1.92;1.70;;;21.70;35.10;;;;;;5038709;28;20095;-52
2022/01/23 03:57:20;;;;;;;2.05;1.80;;;21.70;35.10;;;;;;5031645;28;20372;-51
2022/01/23 03:59:46;;;;;;;2.13;1.45;;;21.70;35.00;;;;;;5024794;28;20045;-54
2022/01/23 04:02:14;;;;;;;1.73;1.55;;;21.70;35.00;;;;;;5034082;28;20436;-55
2022/01/23 04:04:41;;;;;;;2.55;1.77;;;21.70;35.10;;;;;;5023306;28;20423;-52
2022/01/23 04:07:16;;;;;;;2.42;1.65;;;21.70;35.10;;;;;;5022473;28;20036;-51
2022/01/23 04:09:43;;;;;;;2.00;1.63;;;21.70;35.10;;;;;;5046338;28;20035;-49
2022/01/23 04:12:15;;;;;;;2.13;1.90;;;21.70;35.10;;;;;;5045104;28;20024;-55
2022/01/23 04:14:49;;;;;;;1.90;1.77;;;21.70;35.10;;;;;;5034408;28;20396;-54
2022/01/23 04:18:01;;;;;;;2.10;1.75;;;21.70;35.10;;;;;;5034761;28;20113;-51
2022/01/23 04:34:27;;;;;;;1.38;1.27;;;21.60;35.10;;;;;;5038267;28;20017;-51
2022/01/23 05:04:37;;;;;;;2.28;1.48;;;21.50;35.10;;;;;;5033059;28;19916;-53
2022/01/23 05:07:27;;;;;;;2.05;1.40;;;21.50;35.20;;;;;;5015133;28;20145;-51
2022/01/23 05:10:19;;;;;;;1.70;1.48;;;21.50;35.10;;;;;;5031673;28;20025;-53
2022/01/23 05:12:51;;;;;;;1.63;1.40;;;21.50;35.10;;;;;;5053823;28;20033;-55
2022/01/23 05:15:17;;;;;;;1.65;1.48;;;21.50;35.10;;;;;;5042460;28;20037;-56
2022/01/23 05:17:43;;;;;;;1.40;1.30;;;21.60;35.20;;;;;;4998213;28;20321;-49
2022/01/23 05:20:13;;;;;;;1.85;1.70;;;21.60;35.20;;;;;;5020749;28;20021;-49
2022/01/23 05:22:46;;;;;;;1.35;1.25;;;21.60;35.20;;;;;;5051645;28;20083;-52
2022/01/23 05:25:19;;;;;;;1.63;1.52;;;21.50;35.10;;;;;;5035520;28;20449;-53
2022/01/23 05:27:46;;;;;;;1.63;1.00;;;21.50;35.20;;;;;;5034652;28;20382;-54
2022/01/23 05:30:12;;;;;;;1.42;1.30;;;21.50;35.10;;;;;;5041461;28;20032;-55
2022/01/23 05:32:42;;;;;;;1.45;1.30;;;21.50;35.10;;;;;;5043184;28;20311;-54
2022/01/23 05:35:10;;;;;;;1.50;1.25;;;21.50;35.10;;;;;;5041678;28;20025;-52
2022/01/23 05:37:37;;;;;;;1.20;1.10;;;21.50;35.10;;;;;;5033741;28;20026;-49
2022/01/23 05:40:07;;;;;;;1.30;1.20;;;21.50;35.10;;;;;;5039990;28;20040;-49
2022/01/23 05:42:36;;;;;;;1.48;1.27;;;21.50;35.20;;;;;;5033991;28;20025;-54
2022/01/23 05:45:02;;;;;;;2.45;1.10;;;21.50;35.20;;;;;;5034574;28;20380;-49
2022/01/23 05:47:48;;;;;;;1.13;1.00;;;21.50;35.20;;;;;;5042287;28;20042;-48
2022/01/23 05:50:43;;;;;;;1.10;1.00;;;21.50;35.20;;;;;;5026680;28;20065;-53
2022/01/23 05:53:28;;;;;;;1.58;1.10;;;21.50;35.20;;;;;;5015050;28;20049;-49
2022/01/23 05:56:12;;;;;;;1.02;0.85;;;21.50;35.20;;;;;;5033269;28;20495;-48
2022/01/23 05:59:02;;;;;;;1.00;0.85;;;21.50;35.20;;;;;;5031863;28;20104;-52
2022/01/23 06:01:32;;;;;;;1.60;1.15;;;21.50;35.20;;;;;;5016266;28;20037;-48
2022/01/23 06:04:07;;;;;;;0.88;0.77;;;21.50;35.20;;;;;;5018363;28;20124;-47
2022/01/23 06:06:38;;;;;;;0.73;0.73;;;21.50;35.20;;;;;;5005936;28;20030;-52
2022/01/23 06:09:05;;;;;;;1.48;0.80;;;21.40;35.20;;;;;;5036258;28;20325;-49
2022/01/23 06:11:31;;;;;;;1.05;0.90;;;21.50;35.20;;;;;;5027181;28;20040;-50
2022/01/23 06:13:57;;;;;;;0.75;0.70;;;21.50;35.20;;;;;;5037515;28;20029;-54
2022/01/23 06:16:23;;;;;;;1.00;0.90;;;21.50;35.20;;;;;;5017864;28;20034;-52
2022/01/23 06:19:09;;;;;;;1.10;0.80;;;21.50;35.20;;;;;;4996302;28;20038;-51
2022/01/23 06:21:55;;;;;;;0.65;0.60;;;21.50;35.20;;;;;;4981982;28;20065;-48
2022/01/23 06:24:59;;;;;;;0.90;0.70;;;21.40;35.20;;;;;;4965788;28;20031;-52
2022/01/23 06:27:38;;;;;;;0.85;0.85;;;21.40;35.20;;;;;;4957389;29;20039;-46
2022/01/23 06:30:04;;;;;;;0.90;0.70;;;21.40;35.20;;;;;;4987905;28;20124;-51
2022/01/23 06:32:30;;;;;;;0.60;0.60;;;21.40;35.20;;;;;;5016463;28;20022;-48
2022/01/23 06:34:56;;;;;;;0.70;0.70;;;21.40;35.20;;;;;;5017472;28;20374;-49
2022/01/23 06:37:22;;;;;;;0.88;0.60;;;21.40;35.20;;;;;;5006970;28;20337;-53
2022/01/23 06:39:48;;;;;;;0.98;0.80;;;21.40;35.20;;;;;;5000221;28;20033;-53
2022/01/23 06:42:21;;;;;;;0.75;0.73;;;21.40;35.20;;;;;;5021457;28;20344;-51
2022/01/23 06:45:02;;;;;;;0.75;0.70;;;21.40;35.20;;;;;;5025844;28;20033;-53
2022/01/23 06:47:28;;;;;;;0.70;0.60;;;21.40;35.20;;;;;;5015092;28;20361;-53
2022/01/23 06:49:55;;;;;;;0.63;0.52;;;21.40;35.30;;;;;;5024585;28;20096;-48
2022/01/23 06:52:21;;;;;;;0.90;0.60;;;21.40;35.30;;;;;;5015603;28;20026;-52
2022/01/23 06:54:52;;;;;;;0.50;0.50;;;21.40;35.30;;;;;;5004334;28;20022;-51
2022/01/23 06:57:18;;;;;;;0.70;0.60;;;21.40;35.30;;;;;;5000744;28;20034;-53
2022/01/23 06:59:45;;;;;;;2.25;0.52;;;21.40;35.30;;;;;;5037090;28;20124;-51
2022/01/23 07:02:32;;;;;;;0.50;0.35;;;21.40;35.30;;;;;;5035253;28;20029;-49
2022/01/23 07:05:19;;;;;;;0.50;0.50;;;21.40;35.30;;;;;;5015904;28;20021;-48
2022/01/23 07:08:06;;;;;;;0.50;0.50;;;21.40;35.30;;;;;;5027263;28;20047;-50
2022/01/23 07:11:04;;;;;;;0.60;0.60;;;21.40;35.30;;;;;;5028939;28;20040;-49
2022/01/23 07:13:47;;;;;;;0.50;0.50;;;21.40;35.30;;;;;;5046304;28;20017;-52
2022/01/23 07:16:16;;;;;;;0.52;0.50;;;21.40;35.30;;;;;;5048982;28;20037;-50
2022/01/23 07:18:55;;;;;;;1.17;0.50;;;21.40;35.30;;;;;;5046606;28;20081;-48
2022/01/23 07:21:23;;;;;;;0.85;0.50;;;21.40;35.30;;;;;;5048614;28;20036;-51
2022/01/23 07:23:51;;;;;;;0.60;0.50;;;21.30;35.20;;;;;;5039743;28;20025;-52
2022/01/23 07:26:19;;;;;;;1.45;0.60;;;21.40;35.30;;;;;;5036074;28;20037;-55
2022/01/23 07:28:47;;;;;;;0.68;0.50;;;21.40;35.30;;;;;;5045511;28;20473;-52
2022/01/23 07:31:30;;;;;;;1.13;0.60;;;21.40;35.30;;;;;;5024711;28;20099;-55
2022/01/23 07:33:56;;;;;;;2.58;0.50;;;21.40;35.30;;;;;;5028570;28;20029;-50
2022/01/23 07:36:22;;;;;;;0.50;0.40;;;21.40;35.30;;;;;;5022280;28;20022;-50
2022/01/23 07:38:48;;;;;;;0.40;0.40;;;21.40;35.30;;;;;;5045121;28;20029;-52
2022/01/23 07:41:24;;;;;;;0.50;0.50;;;21.30;35.30;;;;;;5047609;28;20017;-53
2022/01/23 07:43:54;;;;;;;0.60;0.57;;;21.30;35.30;;;;;;5043994;28;20406;-51
2022/01/23 07:46:58;;;;;;;0.55;0.55;;;21.30;35.30;;;;;;4994745;28;20481;-52
2022/01/23 07:49:36;;;;;;;0.65;0.65;;;21.30;35.30;;;;;;4985004;28;20061;-54
2022/01/23 07:52:26;;;;;;;0.98;0.70;;;21.30;35.30;;;;;;4998502;28;20433;-50
2022/01/23 07:55:13;;;;;;;0.55;0.55;;;21.30;35.30;;;;;;5026005;28;20333;-49
2022/01/23 07:58:05;;;;;;;0.50;0.50;;;21.30;35.30;;;;;;5042306;28;20056;-52
2022/01/23 08:00:39;;;;;;;0.98;0.85;;;21.30;35.40;;;;;;5028664;28;20047;-53
2022/01/23 08:03:05;;;;;;;0.80;0.70;;;21.20;35.40;;;;;;5029743;28;20035;-54
2022/01/23 08:06:00;;;;;;;1.10;0.80;;;21.30;35.70;;;;;;5015905;28;20029;-56
2022/01/23 08:08:49;;;;;;;0.77;0.60;;;21.30;35.90;;;;;;5016537;28;20186;-52
2022/01/23 08:11:22;;;;;;;0.85;0.70;;;21.30;36.00;;;;;;5036295;28;20039;-53
2022/01/23 08:13:49;;;;;;;0.70;0.57;;;21.40;36.10;;;;;;5053367;28;20020;-51
2022/01/23 08:16:17;;;;;;;0.93;0.70;;;21.50;36.00;;;;;;5053993;28;20032;-50
2022/01/23 08:18:44;;;;;;;1.45;0.70;;;21.60;36.00;;;;;;5054024;28;20436;-52
2022/01/23 08:21:09;;;;;;;0.98;0.70;;;21.70;35.90;;;;;;5053740;28;20068;-52
2022/01/23 08:23:38;;;;;;;0.88;0.68;;;21.80;35.80;;;;;;5055837;28;20162;-47
2022/01/23 08:26:05;;;;;;;0.93;0.77;;;21.80;35.60;;;;;;5052527;28;20444;-55
2022/01/23 08:28:30;;;;;;;1.02;0.70;;;22.00;35.60;;;;;;5053207;28;20025;-52
2022/01/23 08:30:56;;;;;;;0.80;0.73;;;22.10;35.60;;;;;;5052294;28;20027;-53
2022/01/23 08:33:22;;;;;;;0.93;0.52;;;22.10;35.50;;;;;;5054381;28;20053;-53
2022/01/23 08:35:48;;;;;;;1.50;0.75;;;22.20;35.50;;;;;;5054159;28;20047;-55
2022/01/23 08:38:14;;;;;;;0.60;0.60;;;22.30;35.50;;;;;;5054390;28;20021;-50
2022/01/23 08:43:14;;;;;;;1.75;0.90;;;22.40;35.40;;;;;;5051966;28;20046;-51
2022/01/23 08:45:40;;;;;;;0.70;0.70;;;22.50;35.40;;;;;;5054062;28;20033;-52
2022/01/23 08:48:06;;;;;;;1.23;0.65;;;22.60;35.30;;;;;;5053654;28;20447;-50
2022/01/23 08:50:32;;;;;;;0.95;0.60;;;22.60;35.20;;;;;;5035794;28;20290;-47
2022/01/23 08:52:58;;;;;;;0.70;0.70;;;22.70;35.20;;;;;;5053628;28;20059;-48
2022/01/23 08:55:24;;;;;;;1.00;0.63;;;22.80;35.10;;;;;;5053286;28;20466;-53
2022/01/23 08:57:49;;;;;;;0.77;0.70;;;22.80;35.00;;;;;;5053644;28;20095;-50
2022/01/23 09:00:18;;;;;;;0.57;0.57;;;22.90;35.00;;;;;;5053049;28;20039;-47
2022/01/23 09:02:44;;;;;;;1.00;0.80;;;22.90;34.80;;;;;;5053445;28;20452;-54
2022/01/23 09:05:10;;;;;;;0.95;0.60;;;23.00;34.80;;;;;;5053639;28;20067;-48
2022/01/23 09:07:36;;;;;;;0.80;0.70;;;23.00;34.70;;;;;;5053553;28;20113;-49
2022/01/23 09:10:03;;;;;;;0.80;0.63;;;23.10;34.70;;;;;;5053909;28;20029;-54
2022/01/23 09:15:06;;;;;;;0.60;0.60;;;23.20;34.50;;;;;;5033964;28;20033;-53
2022/01/23 09:17:32;;;;;;;0.70;0.70;;;23.20;34.50;;;;;;5034106;28;20036;-53
2022/01/23 09:19:59;;;;;;;1.95;0.63;;;23.20;34.40;;;;;;5036511;28;20108;-51
2022/01/23 09:22:28;;;;;;;1.13;0.80;;;23.30;34.40;;;;;;5052951;28;20017;-48
2022/01/23 09:25:00;;;;;;;1.30;0.65;;;23.30;34.30;;;;;;5053148;28;20043;-52
2022/01/23 09:27:27;;;;;;;2.10;0.52;;;23.40;34.40;;;;;;5063045;28;20472;-57
2022/01/23 09:29:55;;;;;;;1.10;0.60;;;23.40;34.30;;;;;;5053525;28;20043;-51
2022/01/23 09:32:23;;;;;;;1.00;0.80;;;23.50;34.40;;;;;;5042400;28;20058;-58
2022/01/23 09:34:51;;;;;;;1.00;0.70;;;23.50;34.40;;;;;;5053832;28;20025;-55
2022/01/23 09:37:19;;;;;;;0.70;0.70;;;23.50;34.30;;;;;;5053772;28;20037;-56
2022/01/23 09:39:49;;;;;;;0.77;0.63;;;23.50;34.10;;;;;;5050770;28;20027;-59
2022/01/23 09:42:23;;;;;;;0.70;0.70;;;23.50;33.80;;;;;;5051781;28;20047;-50
2022/01/23 09:44:57;;;;;;;3.30;1.45;;;23.40;33.70;;;;;;5057329;28;20029;-53
2022/01/23 09:47:23;;;;;;;3.45;2.25;;;23.40;33.80;;;;;;5054411;28;20551;-53
2022/01/23 09:49:52;;;;;;;5.95;2.97;;;23.40;34.40;;;;;;5040460;28;20105;-55
2022/01/23 09:52:19;;;;;;;5.45;3.30;;;23.40;34.90;;;;;;5068069;28;20070;-56
2022/01/23 09:54:56;;;;;;;4.55;3.28;;;23.50;35.50;;;;;;5042400;28;20117;-52
2022/01/23 09:57:25;;;;;;;6.10;3.60;;;23.50;36.70;;;;;;5038355;28;20033;-53
2022/01/23 09:59:54;;;;;;;5.75;3.83;;;23.50;36.60;;;;;;5057245;28;20037;-56
2022/01/23 10:02:23;;;;;;;5.88;3.42;;;23.50;37.00;;;;;;5056082;28;20047;-52
2022/01/23 10:04:50;;;;;;;9.95;4.85;;;23.50;37.30;;;;;;5051397;28;20436;-55
2022/01/23 10:07:18;;;;;;;8.30;4.45;;;23.60;37.70;;;;;;5057243;28;20491;-48
2022/01/23 10:09:51;;;;;;;10.70;5.13;;;23.60;38.10;;;;;;5056350;28;20151;-49
2022/01/23 10:12:17;;;;;;;12.27;5.43;;;23.60;38.50;;;;;;5052249;28;20037;-48
2022/01/23 10:14:43;;;;;;;12.30;5.18;;;23.60;38.70;;;;;;5055906;28;20095;-49
2022/01/23 10:17:11;;;;;;;7.55;4.35;;;23.60;39.00;;;;;;5057600;28;20120;-51
2022/01/23 10:19:38;;;;;;;7.20;4.05;;;23.60;39.00;;;;;;5046168;28;20336;-50
2022/01/23 10:22:06;;;;;;;8.35;3.72;;;23.60;38.80;;;;;;5037598;28;20060;-50
2022/01/23 10:24:32;;;;;;;8.88;4.15;;;23.60;38.90;;;;;;5052166;28;20120;-46
2022/01/23 10:26:59;;;;;;;6.03;3.22;;;23.60;39.10;;;;;;5043770;28;20064;-47
2022/01/23 10:29:33;;;;;;;6.25;3.97;;;23.60;39.00;;;;;;5048904;28;20025;-52
2022/01/23 10:32:23;;;;;;;6.82;3.33;;;23.70;39.00;;;;;;5043712;28;20029;-48
2022/01/23 10:34:56;;;;;;;7.57;3.75;;;23.70;39.20;;;;;;5024846;28;20041;-52
2022/01/23 10:37:49;;;;;;;8.27;4.68;;;23.70;39.60;;;;;;5050630;28;20723;-49
2022/01/23 10:40:22;;;;;;;9.27;4.18;;;23.70;40.00;;;;;;5045891;28;20199;-61
2022/01/23 10:42:57;;;;;;;6.07;2.47;;;23.70;39.90;;;;;;5040798;28;20022;-48
2022/01/23 10:48:35;;;;;;;2.42;1.30;;;23.60;37.80;;;;;;5055568;28;20040;-55
2022/01/23 10:51:23;;;;;;;5.43;1.90;;;23.50;37.30;;;;;;5056611;28;20024;-54
2022/01/23 10:54:01;;;;;;;2.70;1.73;;;23.40;37.20;;;;;;5043252;28;20025;-57
2022/01/23 10:56:29;;;;;;;2.22;1.35;;;23.40;37.10;;;;;;5044118;28;20049;-56
2022/01/23 10:59:11;;;;;;;1.60;1.30;;;23.40;37.20;;;;;;5039932;28;20333;-50
2022/01/23 11:02:08;;;;;;;3.60;1.65;;;23.40;37.10;;;;;;5048070;28;20424;-60
2022/01/23 11:04:48;;;;;;;2.97;1.85;;;23.40;37.10;;;;;;5036850;28;20509;-58
2022/01/23 11:07:14;;;;;;;2.65;1.50;;;23.40;37.20;;;;;;5042831;28;20034;-54
2022/01/23 11:09:41;;;;;;;2.95;1.90;;;23.40;37.20;;;;;;5022690;28;20021;-53
2022/01/23 11:12:26;;;;;;;3.53;1.90;;;23.40;37.30;;;;;;5051698;28;20033;-56
2022/01/23 11:17:54;;;;;;;3.97;2.30;;;23.40;37.30;;;;;;5051323;28;20039;-54
2022/01/23 11:20:30;;;;;;;2.58;1.80;;;23.40;37.30;;;;;;5025233;28;20117;-51
2022/01/23 11:23:15;;;;;;;3.05;2.05;;;23.50;37.40;;;;;;5053132;28;20048;-49
2022/01/23 11:25:42;;;;;;;;;;;23.50;37.30;;;;;;5045308;28;20021;-49
2022/01/23 11:28:08;;;;;;;3.80;1.90;;;23.40;37.30;;;;;;5050148;28;19905;-50
2022/01/23 11:30:41;;;;;;;3.42;1.85;;;23.40;37.30;;;;;;5040317;28;20033;-46
2022/01/23 11:33:09;;;;;;;5.33;2.00;;;23.40;37.10;;;;;;5040116;28;20032;-52
2022/01/23 11:35:35;;;;;;;5.18;1.90;;;23.40;37.10;;;;;;5043033;28;20328;-49
2022/01/23 11:38:02;;;;;;;2.50;1.67;;;23.40;37.00;;;;;;5040258;28;20071;-47
2022/01/23 11:53:56;;;;;;;3.38;1.48;;;23.40;36.90;;;;;;5065238;28;20035;-56
2022/01/23 11:56:25;;;;;;;4.68;1.45;;;23.40;36.90;;;;;;5058606;28;20045;-51
2022/01/23 11:58:53;;;;;;;2.55;1.65;;;23.40;37.50;;;;;;5046137;28;20199;-46
2022/01/23 12:01:20;;;;;;;3.40;1.58;;;23.50;36.90;;;;;;5052531;28;20111;-54
2022/01/23 12:04:08;;;;;;;3.20;1.52;;;23.50;36.80;;;;;;5050091;28;20143;-49
2022/01/23 12:06:36;;;;;;;2.33;1.30;;;23.50;36.60;;;;;;5055332;28;20527;-47
2022/01/23 12:09:19;;;;;;;2.58;1.50;;;23.50;36.50;;;;;;5058759;28;20131;-51
2022/01/23 12:12:19;;;;;;;3.05;1.60;;;23.50;36.40;;;;;;5054398;28;20387;-47
2022/01/23 12:17:17;;;;;;;2.15;1.30;;;23.40;36.30;;;;;;5047821;28;20057;-48
2022/01/23 12:19:47;;;;;;;2.20;1.35;;;23.40;36.20;;;;;;5053900;28;20340;-50
2022/01/23 12:22:34;;;;;;;1.90;1.02;;;23.40;36.20;;;;;;5051017;28;20031;-51
2022/01/23 12:25:13;;;;;;;3.75;1.30;;;23.40;35.90;;;;;;5051559;28;20037;-54
2022/01/23 12:27:40;;;;;;;1.83;1.15;;;23.40;35.90;;;;;;5054611;28;20021;-53
2022/01/23 12:30:22;;;;;;;1.15;0.82;;;23.40;35.80;;;;;;5052711;28;20476;-54
2022/01/23 12:33:10;;;;;;;1.33;0.90;;;23.40;35.70;;;;;;5050588;28;20025;-51
2022/01/23 12:35:47;;;;;;;1.35;0.95;;;23.40;35.60;;;;;;5059634;28;20382;-54
2022/01/23 12:38:13;;;;;;;2.67;1.30;;;23.40;35.70;;;;;;5053147;28;20047;-55
2022/01/23 12:40:46;;;;;;;1.30;1.00;;;23.30;35.60;;;;;;5051936;28;20027;-56
2022/01/23 12:43:19;;;;;;;1.98;1.17;;;23.30;36.20;;;;;;5052407;28;20506;-56
2022/01/23 12:45:52;;;;;;;3.60;1.00;;;23.30;35.50;;;;;;5053528;28;20041;-48
2022/01/23 12:48:30;;;;;;;2.05;0.95;;;23.30;35.50;;;;;;5050286;28;20049;-52
2022/01/23 12:51:04;;;;;;;0.90;0.63;;;23.30;35.40;;;;;;5054284;28;20374;-48
2022/01/23 12:53:47;;;;;;;1.23;0.60;;;23.30;35.40;;;;;;5062126;28;20036;-57
2022/01/23 12:56:19;;;;;;;1.52;0.80;;;23.30;35.30;;;;;;5046837;28;20045;-59
2022/01/23 12:59:09;;;;;;;2.70;0.80;;;23.30;35.30;;;;;;5055454;28;20132;-57
2022/01/23 13:01:37;;;;;;;1.65;1.10;;;23.30;35.30;;;;;;5046199;28;20032;-49
2022/01/23 13:04:06;;;;;;;1.08;0.70;;;23.30;35.40;;;;;;5059101;28;20039;-55
2022/01/23 13:06:34;;;;;;;0.77;0.63;;;23.30;35.40;;;;;;5053433;28;20033;-59
2022/01/23 13:10:07;;;;;;;1.50;0.80;;;23.40;35.50;;;;;;5055482;28;20025;-58
2022/01/23 13:12:30;;;;;;;1.45;0.82;;;23.40;35.50;;;;;;5043989;28;20336;-54
2022/01/23 13:34:48;;;;;;;0.73;0.60;;;23.60;35.60;;;;;;5066306;28;20027;-52
2022/01/23 13:37:16;;;;;;;0.65;0.50;;;23.60;35.50;;;;;;5052992;28;20036;-50
2022/01/23 13:39:51;;;;;;;1.45;0.55;;;23.60;35.50;;;;;;5057338;28;20100;-54
2022/01/23 13:59:49;;;;;;;0.73;0.52;;;23.50;35.00;;;;;;5050434;28;20068;-53
2022/01/23 14:02:18;;;;;;;0.85;0.57;;;23.50;35.00;;;;;;5048528;28;20141;-53
2022/01/23 14:05:11;;;;;;;0.75;0.45;;;23.50;34.90;;;;;;5047986;28;20079;-48
2022/01/23 14:07:39;;;;;;;1.02;0.65;;;23.50;34.80;;;;;;5037901;28;20059;-51
2022/01/23 14:10:19;;;;;;;1.95;0.80;;;23.40;34.90;;;;;;5044700;28;20025;-53
2022/01/23 14:13:05;;;;;;;0.98;0.70;;;23.50;35.00;;;;;;5054788;28;20430;-52
2022/01/23 14:15:52;;;;;;;1.23;0.73;;;23.50;35.10;;;;;;5056596;28;20100;-49
2022/01/23 14:18:31;;;;;;;0.90;0.55;;;23.50;35.00;;;;;;5055312;28;20017;-53
2022/01/23 14:21:09;;;;;;;1.38;0.80;;;23.40;35.00;;;;;;5037157;28;20097;-56
2022/01/23 14:23:40;;;;;;;1.10;0.70;;;23.50;35.00;;;;;;5037217;28;20040;-56
2022/01/23 14:26:09;;;;;;;1.48;0.77;;;23.40;35.00;;;;;;5038002;28;20063;-47
2022/01/23 14:28:45;;;;;;;1.83;0.80;;;23.30;35.00;;;;;;5051461;28;20037;-52
2022/01/23 14:31:22;;;;;;;2.20;0.90;;;23.30;35.10;;;;;;5056151;28;20029;-54
2022/01/23 14:33:59;;;;;;;1.30;0.80;;;23.20;35.10;;;;;;5045375;28;20059;-49
2022/01/23 14:36:42;;;;;;;1.40;0.80;;;23.20;35.10;;;;;;5035244;28;20037;-56
2022/01/23 14:39:14;;;;;;;2.10;0.90;;;23.20;35.10;;;;;;5053363;28;20060;-55
2022/01/23 14:41:46;;;;;;;1.52;0.70;;;23.20;35.80;;;;;;5054556;28;20045;-52
2022/01/23 14:44:33;;;;;;;2.08;0.90;;;23.10;35.70;;;;;;5052866;28;20067;-53
2022/01/23 14:47:01;;;;;;;2.60;1.00;;;23.20;35.00;;;;;;5050251;28;20021;-51
2022/01/23 14:49:31;;;;;;;2.47;0.98;;;23.10;35.00;;;;;;5036283;28;20104;-51
2022/01/23 14:52:01;;;;;;;1.55;0.90;;;23.10;35.00;;;;;;5035960;28;20492;-53
2022/01/23 14:54:33;;;;;;;2.00;1.02;;;23.10;35.00;;;;;;5047724;28;20013;-52
2022/01/23 14:57:09;;;;;;;1.73;1.02;;;23.10;34.90;;;;;;5054570;28;20021;-54
2022/01/23 14:59:39;;;;;;;2.30;1.05;;;23.10;34.90;;;;;;5065009;28;20040;-49
2022/01/23 15:02:11;;;;;;;2.05;0.90;;;23.00;34.90;;;;;;5066747;28;20064;-54
2022/01/23 15:04:45;;;;;;;;;;;23.00;34.90;;;;;;5055580;28;20340;-52
2022/01/23 15:07:16;;;;;;;2.28;1.25;;;23.00;35.00;;;;;;5060127;28;19904;-56
2022/01/23 15:09:48;;;;;;;1.35;0.90;;;22.90;35.00;;;;;;5058374;28;20029;-54
2022/01/23 15:12:21;;;;;;;2.15;0.95;;;22.90;35.00;;;;;;5075244;28;20027;-51
2022/01/23 15:14:54;;;;;;;1.90;1.10;;;22.90;35.00;;;;;;5056713;28;20343;-53
2022/01/23 15:17:25;;;;;;;1.92;1.00;;;22.90;35.00;;;;;;5072117;28;20089;-51
2022/01/23 15:19:55;;;;;;;1.40;0.90;;;22.90;35.00;;;;;;5064307;28;20021;-51
2022/01/23 15:22:27;;;;;;;1.33;0.93;;;22.90;35.00;;;;;;5054056;28;20425;-50
2022/01/23 15:25:01;;;;;;;1.30;0.90;;;22.90;35.00;;;;;;5051847;28;20032;-48
2022/01/23 15:27:30;;;;;;;1.52;0.98;;;22.80;35.00;;;;;;5062182;28;20027;-51
2022/01/23 15:29:59;;;;;;;1.67;0.95;;;22.80;35.00;;;;;;5065271;28;20709;-51
2022/01/23 15:32:28;;;;;;;1.55;1.20;;;22.80;35.00;;;;;;5044806;28;20053;-52
2022/01/23 15:35:00;;;;;;;1.33;0.90;;;22.80;35.00;;;;;;5053811;28;20089;-53
2022/01/23 15:37:32;;;;;;;2.00;1.15;;;22.80;35.00;;;;;;5037402;28;20440;-50
2022/01/23 15:40:12;;;;;;;1.38;1.00;;;22.80;35.00;;;;;;5055283;28;20029;-50
2022/01/23 15:42:46;;;;;;;1.73;1.10;;;22.80;35.00;;;;;;5037370;28;20063;-50
2022/01/23 15:45:15;;;;;;;1.40;0.82;;;22.80;35.00;;;;;;5034912;28;20076;-55
2022/01/23 15:47:51;;;;;;;1.33;0.90;;;22.80;35.00;;;;;;5042120;28;20100;-52
2022/01/23 15:50:24;;;;;;;1.45;0.90;;;22.80;35.00;;;;;;5055180;28;20079;-54
2022/01/23 15:52:55;;;;;;;1.00;0.70;;;22.80;35.00;;;;;;5058664;28;20051;-52
2022/01/23 15:55:27;;;;;;;2.38;0.93;;;22.70;35.00;;;;;;5054832;28;20033;-58
2022/01/23 15:57:58;;;;;;;2.40;0.82;;;22.70;35.00;;;;;;5054519;28;20372;-49
2022/01/23 16:00:29;;;;;;;1.70;1.00;;;22.70;35.00;;;;;;5075054;28;20028;-49
2022/01/23 16:03:03;;;;;;;1.30;0.98;;;22.70;35.10;;;;;;5055762;28;20044;-50
2022/01/23 16:05:32;;;;;;;1.40;0.80;;;22.70;35.00;;;;;;5054902;28;20077;-52
2022/01/23 16:08:00;;;;;;;0.90;0.73;;;22.70;35.00;;;;;;5068093;28;20048;-53
2022/01/23 16:10:29;;;;;;;0.98;0.70;;;22.60;35.00;;;;;;5070740;28;20501;-51
2022/01/23 16:13:04;;;;;;;1.15;0.93;;;22.60;35.00;;;;;;5074934;28;20028;-51
2022/01/23 16:15:33;;;;;;;1.95;1.20;;;22.60;34.90;;;;;;5045760;28;20021;-52
2022/01/23 16:18:07;;;;;;;1.70;1.35;;;22.60;34.70;;;;;;5054883;28;20021;-54
2022/01/23 16:20:38;;;;;;;1.40;1.08;;;22.60;34.60;;;;;;5053294;28;20063;-55
2022/01/23 16:23:14;;;;;;;1.17;0.90;;;22.50;34.50;;;;;;5050149;28;20029;-49
2022/01/23 16:25:47;;;;;;;1.75;1.15;;;22.50;34.40;;;;;;5054466;28;20293;-49
2022/01/23 16:28:15;;;;;;;1.58;1.10;;;22.50;34.30;;;;;;5074519;28;20073;-55
2022/01/23 16:30:56;;;;;;;1.63;1.10;;;22.50;34.20;;;;;;5047780;28;20033;-55